createdAt,value
2022-09-22T00:01:36.879Z,101047.41
2022-09-22T00:04:09.541Z,101045.22
2022-09-22T00:06:43.441Z,101035.97
2022-09-22T00:09:13.985Z,101044.84
2022-09-22T00:11:49.630Z,101039.72
2022-09-22T00:14:27.400Z,101049.88
2022-09-22T00:17:00.396Z,101055.22
2022-09-22T00:19:32.659Z,101047.09
2022-09-22T00:22:00.723Z,101053.34
2022-09-22T00:24:29.420Z,101059.25
2022-09-22T00:26:59.328Z,101057.78
2022-09-22T00:29:29.954Z,101060.09
2022-09-22T00:31:58.535Z,101067.81
2022-09-22T00:34:28.616Z,101075.75
2022-09-22T00:36:56.521Z,101077.59
2022-09-22T00:39:24.302Z,101085.75
2022-09-22T00:41:53.079Z,101071.91
2022-09-22T00:44:27.018Z,101085.38
2022-09-22T00:47:01.756Z,101079.47
2022-09-22T00:49:55.597Z,101091.88
2022-09-22T00:52:32.220Z,101095.72
2022-09-22T00:55:05.524Z,101092.00
2022-09-22T00:57:37.070Z,101109.28
2022-09-22T01:00:08.935Z,101113.25
2022-09-22T01:02:37.274Z,101118.38
2022-09-22T01:05:05.886Z,101115.91
2022-09-22T01:07:34.238Z,101131.56
2022-09-22T01:10:02.288Z,101124.03
2022-09-22T01:12:31.949Z,101126.38
2022-09-22T01:15:29.315Z,101117.44
2022-09-22T01:18:09.185Z,101130.69
2022-09-22T01:21:07.528Z,101131.75
2022-09-22T01:24:39.981Z,101125.13
2022-09-22T01:27:16.937Z,101145.44
2022-09-22T01:30:16.519Z,101143.53
2022-09-22T01:32:56.634Z,101150.94
2022-09-22T01:35:32.389Z,101152.91
2022-09-22T01:38:31.998Z,101154.03
2022-09-22T01:41:19.915Z,101162.75
2022-09-22T01:44:45.633Z,101147.66
2022-09-22T01:47:29.562Z,101149.78
2022-09-22T01:50:06.962Z,101157.63
2022-09-22T01:52:36.669Z,101166.28
2022-09-22T01:55:20.390Z,101155.78
2022-09-22T01:58:10.166Z,101167.88
2022-09-22T02:00:45.990Z,101169.09
2022-09-22T02:03:24.900Z,101163.41
2022-09-22T02:06:01.875Z,101161.94
2022-09-22T02:08:38.289Z,101177.66
2022-09-22T02:11:15.952Z,101167.19
2022-09-22T02:13:46.825Z,101164.31
2022-09-22T02:16:19.115Z,101170.41
2022-09-22T02:19:19.413Z,101175.53
2022-09-22T02:21:48.902Z,101170.16
2022-09-22T02:24:35.074Z,101158.34
2022-09-22T02:27:08.120Z,101172.41
2022-09-22T02:29:41.615Z,101183.97
2022-09-22T02:32:14.514Z,101183.59
2022-09-22T02:34:44.259Z,101179.81
2022-09-22T02:37:35.074Z,101180.84
2022-09-22T02:40:32.823Z,101194.69
2022-09-22T02:43:26.441Z,101186.41
2022-09-22T02:46:04.742Z,101190.25
2022-09-22T02:48:51.868Z,101182.56
2022-09-22T02:51:19.826Z,101173.88
2022-09-22T02:53:48.023Z,101179.59
2022-09-22T02:56:16.079Z,101184.97
2022-09-22T02:58:44.035Z,101178.69
2022-09-22T03:01:12.060Z,101188.66
2022-09-22T03:03:40.531Z,101184.13
2022-09-22T03:06:10.261Z,101179.72
2022-09-22T03:08:38.590Z,101192.66
2022-09-22T03:11:06.540Z,101191.16
2022-09-22T03:13:34.645Z,101194.81
2022-09-22T03:16:03.065Z,101190.94
2022-09-22T03:18:31.323Z,101192.81
2022-09-22T03:20:59.698Z,101193.22
2022-09-22T03:23:28.331Z,101202.19
2022-09-22T03:25:56.432Z,101199.94
2022-09-22T03:28:24.693Z,101206.66
2022-09-22T03:30:52.674Z,101211.38
2022-09-22T03:33:20.641Z,101206.66
2022-09-22T03:35:48.583Z,101200.69
2022-09-22T03:38:16.486Z,101194.31
2022-09-22T03:40:51.375Z,101202.88
2022-09-22T03:43:20.254Z,101201.47
2022-09-22T03:45:48.153Z,101201.13
2022-09-22T03:48:16.245Z,101194.78
2022-09-22T03:50:44.813Z,101196.50
2022-09-22T03:53:12.773Z,101186.03
2022-09-22T03:55:40.748Z,101197.06
2022-09-22T03:58:08.707Z,101197.53
2022-09-22T04:00:36.619Z,101197.19
2022-09-22T04:03:04.879Z,101194.53
2022-09-22T04:05:33.105Z,101205.00
2022-09-22T04:08:01.430Z,101202.31
2022-09-22T04:10:29.778Z,101191.91
2022-09-22T04:12:57.631Z,101184.38
2022-09-22T04:15:25.589Z,101197.84
2022-09-22T04:17:53.482Z,101193.34
2022-09-22T04:20:21.460Z,101203.56
2022-09-22T04:22:49.342Z,101199.69
2022-09-22T04:25:17.466Z,101207.91
2022-09-22T04:27:45.432Z,101211.50
2022-09-22T04:30:13.699Z,101211.97
2022-09-22T04:32:41.943Z,101215.84
2022-09-22T04:35:10.146Z,101212.59
2022-09-22T04:38:11.204Z,101217.06
2022-09-22T04:40:39.241Z,101215.06
2022-09-22T04:43:07.096Z,101210.59
2022-09-22T04:45:39.363Z,101216.38
2022-09-22T04:48:07.578Z,101216.72
2022-09-22T04:50:35.454Z,101227.63
2022-09-22T04:53:07.837Z,101233.75
2022-09-22T04:55:36.172Z,101227.81
2022-09-22T04:58:04.027Z,101218.53
2022-09-22T05:00:31.813Z,101229.63
2022-09-22T05:03:02.029Z,101240.66
2022-09-22T05:05:30.200Z,101242.44
2022-09-22T05:07:58.166Z,101263.19
2022-09-22T05:10:26.776Z,101267.25
2022-09-22T05:12:54.685Z,101265.63
2022-09-22T05:15:23.004Z,101270.72
2022-09-22T05:17:53.808Z,101273.72
2022-09-22T05:20:22.349Z,101273.44
2022-09-22T05:22:50.233Z,101273.44
2022-09-22T05:25:19.392Z,101280.19
2022-09-22T05:27:50.440Z,101278.97
2022-09-22T05:30:20.777Z,101286.63
2022-09-22T05:32:49.637Z,101285.78
2022-09-22T05:35:21.557Z,101284.28
2022-09-22T05:37:52.142Z,101287.88
2022-09-22T05:40:20.814Z,101287.19
2022-09-22T05:42:54.447Z,101294.38
2022-09-22T05:45:22.852Z,101299.00
2022-09-22T05:47:51.086Z,101305.53
2022-09-22T05:50:22.100Z,101305.06
2022-09-22T05:52:50.631Z,101307.34
2022-09-22T05:55:18.553Z,101314.16
2022-09-22T05:57:46.421Z,101321.28
2022-09-22T06:00:14.567Z,101322.38
2022-09-22T06:02:45.146Z,101325.16
2022-09-22T06:05:16.286Z,101325.78
2022-09-22T06:07:45.097Z,101330.19
2022-09-22T06:10:13.041Z,101323.34
2022-09-22T06:12:40.959Z,101329.00
2022-09-22T06:15:09.355Z,101319.72
2022-09-22T06:17:37.177Z,101325.94
2022-09-22T06:20:05.758Z,101337.72
2022-09-22T06:22:36.266Z,101336.06
2022-09-22T06:25:04.707Z,101338.47
2022-09-22T06:27:32.508Z,101348.00
2022-09-22T06:30:00.411Z,101353.16
2022-09-22T06:32:28.167Z,101347.38
2022-09-22T06:34:56.100Z,101368.91
2022-09-22T06:37:24.073Z,101376.97
2022-09-22T06:39:52.496Z,101383.69
2022-09-22T06:42:20.498Z,101387.91
2022-09-22T06:44:49.165Z,101394.28
2022-09-22T06:47:18.272Z,101384.19
2022-09-22T06:49:46.811Z,101378.47
2022-09-22T06:52:15.202Z,101382.13
2022-09-22T06:54:43.191Z,101373.94
2022-09-22T06:57:13.080Z,101375.72
2022-09-22T06:59:41.312Z,101380.06
2022-09-22T07:02:10.580Z,101372.88
2022-09-22T07:04:38.631Z,101364.84
2022-09-22T07:07:06.512Z,101357.44
2022-09-22T07:09:34.425Z,101355.31
2022-09-22T07:12:02.481Z,101345.22
2022-09-22T07:14:31.336Z,101342.91
2022-09-22T07:16:59.193Z,101350.88
2022-09-22T07:19:26.915Z,101342.38
2022-09-22T07:21:54.733Z,101341.16
2022-09-22T07:24:22.894Z,101329.88
2022-09-22T07:26:51.319Z,101339.19
2022-09-22T07:29:19.162Z,101333.50
2022-09-22T07:31:46.995Z,101331.13
2022-09-22T07:34:16.407Z,101302.53
2022-09-22T07:36:45.222Z,101297.03
2022-09-22T07:39:13.179Z,101296.09
2022-09-22T07:41:44.503Z,101280.09
2022-09-22T07:44:34.993Z,101286.75
2022-09-22T07:47:03.817Z,101295.63
2022-09-22T07:49:32.540Z,101277.25
2022-09-22T07:52:00.376Z,101269.13
2022-09-22T07:54:29.031Z,101279.28
2022-09-22T07:56:58.984Z,101268.06
2022-09-22T07:59:27.771Z,101254.16
2022-09-22T08:01:56.082Z,101250.53
2022-09-22T08:04:24.517Z,101248.28
2022-09-22T08:06:56.154Z,101256.38
2022-09-22T08:09:25.626Z,101248.25
2022-09-22T08:11:53.987Z,101259.72
2022-09-22T08:14:24.139Z,101261.19
2022-09-22T08:16:54.104Z,101251.44
2022-09-22T08:19:25.378Z,101244.66
2022-09-22T08:21:54.548Z,101250.53
2022-09-22T08:24:23.792Z,101237.69
2022-09-22T08:26:56.469Z,101215.47
2022-09-22T08:29:24.872Z,101210.97
2022-09-22T08:31:54.348Z,101218.50
2022-09-22T08:34:23.244Z,101237.44
2022-09-22T08:36:51.254Z,101206.59
2022-09-22T08:39:19.692Z,101207.59
2022-09-22T08:42:22.133Z,101201.41
2022-09-22T08:45:27.210Z,101206.19
2022-09-22T08:48:22.020Z,101201.28
2022-09-22T08:51:10.843Z,101210.53
2022-09-22T08:53:46.690Z,101186.72
2022-09-22T08:56:36.857Z,101170.38
2022-09-22T08:59:24.345Z,101170.50
2022-09-22T09:02:24.019Z,101163.50
2022-09-22T09:05:22.478Z,101165.31
2022-09-22T09:08:17.918Z,101187.91
2022-09-22T09:11:17.552Z,101169.53
2022-09-22T09:14:10.060Z,101164.22
2022-09-22T09:16:46.746Z,101179.50
2022-09-22T09:19:37.911Z,101167.38
2022-09-22T09:22:25.483Z,101135.44
2022-09-22T09:25:25.506Z,101136.38
2022-09-22T09:28:01.253Z,101137.47
2022-09-22T09:30:40.575Z,101115.50
2022-09-22T09:33:49.229Z,101094.34
2022-09-22T09:36:22.805Z,101133.69
2022-09-22T09:38:57.688Z,101135.66
2022-09-22T09:41:33.164Z,101085.97
2022-09-22T09:44:02.745Z,101122.50
2022-09-22T09:47:12.689Z,101054.16
2022-09-22T09:49:40.557Z,101057.78
2022-09-22T09:52:13.705Z,101118.25
2022-09-22T09:54:44.057Z,101006.31
2022-09-22T09:57:15.865Z,101098.72
2022-09-22T10:00:32.092Z,101018.78
2022-09-22T10:03:06.157Z,101113.00
2022-09-22T10:05:37.551Z,101037.44
2022-09-22T10:08:21.537Z,100986.81
2022-09-22T10:10:56.048Z,101023.22
2022-09-22T10:13:32.844Z,100945.91
2022-09-22T10:16:10.414Z,100931.72
2022-09-22T10:18:41.023Z,100939.69
2022-09-22T10:21:21.588Z,101024.59
2022-09-22T10:23:58.159Z,100941.06
2022-09-22T10:26:33.406Z,100942.88
2022-09-22T10:29:20.070Z,100891.22
2022-09-22T10:32:15.702Z,100873.28
2022-09-22T10:37:18.915Z,100847.50
2022-09-22T10:39:56.572Z,100925.31
2022-09-22T10:42:46.229Z,100834.38
2022-09-22T10:45:16.972Z,100745.69
2022-09-22T10:47:49.180Z,100807.03
2022-09-22T10:50:41.492Z,100807.47
2022-09-22T10:54:06.371Z,100810.47
2022-09-22T10:56:39.903Z,100813.09
2022-09-22T10:59:47.384Z,100725.13
2022-09-22T11:03:16.818Z,100744.53
2022-09-22T11:06:47.035Z,100682.63
2022-09-22T11:09:52.645Z,100657.34
2022-09-22T11:13:10.797Z,100641.84
2022-09-22T11:16:09.714Z,100687.03
2022-09-22T11:19:36.457Z,100762.66
2022-09-22T11:22:32.104Z,100546.13
2022-09-22T11:26:04.834Z,100703.28
2022-09-22T11:28:54.916Z,100619.94
2022-09-22T11:31:49.882Z,100625.72
2022-09-22T11:34:33.305Z,100634.78
2022-09-22T11:37:23.767Z,100479.59
2022-09-22T11:40:04.616Z,100478.28
2022-09-22T11:42:44.729Z,100487.84
2022-09-22T11:45:46.521Z,100489.34
2022-09-22T11:48:35.186Z,100448.09
2022-09-22T11:51:37.669Z,100428.78
2022-09-22T11:54:40.693Z,100428.50
2022-09-22T11:57:12.361Z,100482.94
2022-09-22T11:59:45.447Z,100442.72
2022-09-22T12:02:46.689Z,100492.88
2022-09-22T12:05:31.422Z,100392.56
2022-09-22T12:08:13.744Z,100299.00
2022-09-22T12:10:48.100Z,100327.69
2022-09-22T12:13:25.163Z,100160.34
2022-09-22T12:16:15.426Z,100468.72
2022-09-22T12:18:58.761Z,100378.06
2022-09-22T12:21:47.271Z,100393.22
2022-09-22T12:24:15.951Z,100295.09
2022-09-22T12:26:47.104Z,100235.81
2022-09-22T12:29:14.898Z,100383.88
2022-09-22T12:31:47.404Z,100280.31
2022-09-22T12:34:26.433Z,100249.09
2022-09-22T12:37:08.752Z,100102.41
2022-09-22T12:39:42.724Z,100220.22
2022-09-22T12:42:35.788Z,100061.34
2022-09-22T12:45:32.737Z,100121.03
2022-09-22T12:48:10.569Z,100136.38
2022-09-22T12:50:44.524Z,100164.75
2022-09-22T12:53:21.785Z,100146.69
2022-09-22T12:55:57.768Z,100175.97
2022-09-22T12:58:31.478Z,100217.97
2022-09-22T13:01:32.781Z,99975.69
2022-09-22T13:04:13.573Z,100047.72
2022-09-22T13:06:41.300Z,99943.13
2022-09-22T13:09:21.423Z,99966.72
2022-09-22T13:12:14.482Z,99907.41
2022-09-22T13:15:12.287Z,99883.56
2022-09-22T13:17:43.630Z,99972.38
2022-09-22T13:20:22.507Z,100031.13
2022-09-22T13:22:52.111Z,99902.97
2022-09-22T13:25:28.328Z,99801.41
2022-09-22T13:28:09.831Z,99765.41
2022-09-22T13:30:40.330Z,99842.69
2022-09-22T13:33:26.701Z,99884.28
2022-09-22T13:36:13.515Z,99941.31
2022-09-22T13:38:45.212Z,99858.31
2022-09-22T13:41:19.203Z,99798.81
2022-09-22T13:43:56.779Z,99806.19
2022-09-22T13:46:39.718Z,99701.47
2022-09-22T13:49:12.666Z,99662.94
2022-09-22T13:51:40.752Z,99774.81
2022-09-22T13:54:21.789Z,99774.47
2022-09-22T13:56:49.769Z,99781.31
2022-09-22T13:59:18.461Z,99675.25
2022-09-22T14:01:51.495Z,99700.66
2022-09-22T14:04:27.861Z,99784.00
2022-09-22T14:07:00.297Z,99695.28
2022-09-22T14:09:28.825Z,99677.41
2022-09-22T14:11:58.053Z,99684.81
2022-09-22T14:14:27.690Z,99710.66
2022-09-22T14:16:57.019Z,99570.50
2022-09-22T14:19:47.062Z,99573.41
2022-09-22T14:22:24.505Z,99605.25
2022-09-22T14:24:59.870Z,99756.22
2022-09-22T14:27:36.245Z,99632.34
2022-09-22T14:30:05.663Z,99516.91
2022-09-22T14:32:44.553Z,99520.66
2022-09-22T14:35:29.903Z,99631.63
2022-09-22T14:38:11.137Z,99485.22
2022-09-22T14:41:27.348Z,99510.78
2022-09-22T14:43:55.393Z,99477.25
2022-09-22T14:46:41.424Z,99587.31
2022-09-22T14:49:44.281Z,99548.78
2022-09-22T14:52:28.790Z,99491.63
2022-09-22T14:55:21.225Z,99424.50
2022-09-22T14:57:50.392Z,99369.94
2022-09-22T15:00:37.429Z,99487.63
2022-09-22T15:03:20.856Z,99436.78
2022-09-22T15:05:50.335Z,99368.06
2022-09-22T15:08:27.744Z,99458.97
2022-09-22T15:10:59.928Z,99346.44
2022-09-22T15:13:42.129Z,99417.34
2022-09-22T15:16:36.801Z,99463.16
2022-09-22T15:19:05.839Z,99276.09
2022-09-22T15:21:40.676Z,99312.06
2022-09-22T15:24:11.199Z,99367.16
2022-09-22T15:26:41.925Z,99263.81
2022-09-22T15:29:12.195Z,99299.69
2022-09-22T15:31:40.293Z,99356.72
2022-09-22T15:34:10.015Z,99354.88
2022-09-22T15:36:45.840Z,99269.72
2022-09-22T15:39:24.377Z,99339.66
2022-09-22T15:41:54.364Z,99308.34
2022-09-22T15:44:22.242Z,99344.53
2022-09-22T15:46:54.824Z,99304.94
2022-09-22T15:49:26.609Z,99250.91
2022-09-22T15:51:56.757Z,99233.94
2022-09-22T15:54:26.438Z,99192.38
2022-09-22T15:56:56.988Z,99276.66
2022-09-22T15:59:28.644Z,99221.50
2022-09-22T16:01:57.490Z,99186.47
2022-09-22T16:04:32.505Z,99273.28
2022-09-22T16:07:05.343Z,99142.09
2022-09-22T16:09:33.326Z,99241.59
2022-09-22T16:12:02.315Z,99222.91
2022-09-22T16:14:30.167Z,99203.63
2022-09-22T16:16:58.562Z,99220.38
2022-09-22T16:19:28.478Z,99312.75
2022-09-22T16:21:56.494Z,99289.75
2022-09-22T16:24:26.564Z,99243.72
2022-09-22T16:26:54.929Z,99229.94
2022-09-22T16:29:23.063Z,99283.94
2022-09-22T16:31:51.682Z,99326.22
2022-09-22T16:34:19.642Z,99446.81
2022-09-22T16:36:47.535Z,99386.69
2022-09-22T16:42:15.327Z,99408.63
2022-09-22T16:44:43.322Z,99401.03
2022-09-22T16:47:14.507Z,99437.88
2022-09-22T16:49:42.365Z,99488.97
2022-09-22T16:52:12.641Z,99497.91
2022-09-22T16:54:40.451Z,99479.63
2022-09-22T16:57:08.530Z,99453.09
2022-09-22T16:59:36.580Z,99505.00
2022-09-22T17:02:04.700Z,99491.91
2022-09-22T17:04:32.878Z,99366.88
2022-09-22T17:07:00.764Z,99414.81
2022-09-22T17:09:35.362Z,99465.97
2022-09-22T17:12:10.877Z,99472.97
2022-09-22T17:14:47.775Z,99475.63
2022-09-22T17:17:16.298Z,99493.06
2022-09-22T17:19:45.431Z,99510.31
2022-09-22T17:22:13.606Z,99511.56
2022-09-22T17:24:43.434Z,99526.78
2022-09-22T17:27:12.333Z,99556.91
2022-09-22T17:29:40.284Z,99564.56
2022-09-22T17:32:08.252Z,99585.00
2022-09-22T17:34:38.323Z,99607.38
2022-09-22T17:37:06.689Z,99618.38
2022-09-22T17:39:34.674Z,99652.31
2022-09-22T17:42:03.412Z,99655.66
2022-09-22T17:44:34.391Z,99676.63
2022-09-22T17:47:22.545Z,99704.78
2022-09-22T17:50:08.699Z,99727.00
2022-09-22T17:52:40.017Z,99754.91
2022-09-22T17:55:16.152Z,99745.81
2022-09-22T17:57:47.535Z,99786.19
2022-09-22T18:00:21.202Z,99822.50
2022-09-22T18:02:51.107Z,99855.81
2022-09-22T18:05:25.669Z,99892.41
2022-09-22T18:07:58.322Z,99914.72
2022-09-22T18:10:32.491Z,99934.16
2022-09-22T18:13:02.033Z,99945.88
2022-09-22T18:15:30.049Z,99953.22
2022-09-22T18:17:58.186Z,99969.88
2022-09-22T18:20:27.691Z,99978.72
2022-09-22T18:23:00.337Z,99963.84
2022-09-22T18:25:28.296Z,99983.56
2022-09-22T18:27:56.423Z,100000.63
2022-09-22T18:30:24.284Z,100011.53
2022-09-22T18:32:52.279Z,100035.41
2022-09-22T18:35:20.606Z,100046.91
2022-09-22T18:37:48.469Z,100056.09
2022-09-22T18:40:17.187Z,100076.34
2022-09-22T18:42:46.236Z,100078.94
2022-09-22T18:45:14.556Z,100084.38
2022-09-22T18:47:43.923Z,100078.31
2022-09-22T18:50:12.841Z,100076.47
2022-09-22T18:52:43.458Z,100087.13
2022-09-22T18:55:18.573Z,100115.50
2022-09-22T18:57:48.301Z,100119.97
2022-09-22T19:00:17.412Z,100121.78
2022-09-22T19:02:46.451Z,100132.34
2022-09-22T19:05:14.831Z,100144.72
2022-09-22T19:07:47.127Z,100167.72
2022-09-22T19:10:22.676Z,100180.97
2022-09-22T19:12:50.884Z,100187.16
2022-09-22T19:15:19.610Z,100190.66
2022-09-22T19:17:49.831Z,100200.41
2022-09-22T19:20:24.027Z,100209.19
2022-09-22T19:22:52.931Z,100211.88
2022-09-22T19:25:22.333Z,100213.56
2022-09-22T19:27:52.714Z,100232.09
2022-09-22T19:30:24.823Z,100240.06
2022-09-22T19:32:55.541Z,100234.75
2022-09-22T19:35:23.849Z,100240.03
2022-09-22T19:37:52.487Z,100251.53
2022-09-22T19:40:24.954Z,100257.63
2022-09-22T19:42:54.602Z,100258.53
2022-09-22T19:45:26.855Z,100261.94
2022-09-22T19:47:58.667Z,100274.28
2022-09-22T19:50:26.647Z,100277.81
2022-09-22T19:52:54.972Z,100291.91
2022-09-22T19:55:22.867Z,100283.91
2022-09-22T19:57:54.278Z,100290.91
2022-09-22T20:00:26.514Z,100305.00
2022-09-22T20:02:58.929Z,100314.75
2022-09-22T20:05:36.965Z,100315.72
2022-09-22T20:08:07.797Z,100323.63
2022-09-22T20:10:37.120Z,100323.53
2022-09-22T20:13:25.266Z,100324.50
2022-09-22T20:15:53.558Z,100325.31
2022-09-22T20:18:22.773Z,100321.72
2022-09-22T20:20:52.824Z,100325.19
2022-09-22T20:23:23.054Z,100321.41
2022-09-22T20:25:51.860Z,100340.72
2022-09-22T20:28:21.074Z,100342.50
2022-09-22T20:30:50.243Z,100356.44
2022-09-22T20:33:24.197Z,100352.72
2022-09-22T20:35:55.601Z,100363.28
2022-09-22T20:38:24.051Z,100374.75
2022-09-22T20:40:51.706Z,100370.25
2022-09-22T20:43:19.652Z,100379.09
2022-09-22T20:45:47.500Z,100380.91
2022-09-22T20:48:18.590Z,100379.16
2022-09-22T20:50:56.473Z,100387.75
2022-09-22T20:53:24.388Z,100383.28
2022-09-22T20:56:10.659Z,100381.41
2022-09-22T20:58:44.493Z,100386.72
2022-09-22T21:01:15.920Z,100387.50
2022-09-22T21:03:44.349Z,100394.38
2022-09-22T21:06:13.198Z,100395.06
2022-09-22T21:09:01.644Z,100410.66
2022-09-22T21:11:30.909Z,100415.09
2022-09-22T21:14:04.091Z,100424.34
2022-09-22T21:16:37.068Z,100421.72
2022-09-22T21:19:05.109Z,100441.13
2022-09-22T21:21:38.342Z,100453.75
2022-09-22T21:24:06.896Z,100462.69
2022-09-22T21:26:35.128Z,100471.03
2022-09-22T21:29:02.899Z,100463.81
2022-09-22T21:31:30.976Z,100476.16
2022-09-22T21:33:59.047Z,100479.56
2022-09-22T21:36:27.124Z,100483.94
2022-09-22T21:39:19.831Z,100487.25
2022-09-22T21:41:47.803Z,100488.00
2022-09-22T21:44:15.581Z,100493.31
2022-09-22T21:46:44.269Z,100507.38
2022-09-22T21:49:12.212Z,100510.72
2022-09-22T21:51:42.853Z,100515.03
2022-09-22T21:54:17.752Z,100517.75
2022-09-22T21:56:46.389Z,100531.88
2022-09-22T21:59:14.681Z,100541.19
2022-09-22T22:01:45.042Z,100534.75
2022-09-22T22:04:15.161Z,100530.56
2022-09-22T22:06:45.222Z,100515.56
2022-09-22T22:09:20.978Z,100520.56
2022-09-22T22:11:56.551Z,100529.06
2022-09-22T22:14:30.942Z,100538.16
2022-09-22T22:16:58.836Z,100534.41
2022-09-22T22:19:27.118Z,100535.28
2022-09-22T22:21:55.525Z,100544.03
2022-09-22T22:24:25.097Z,100559.50
2022-09-22T22:27:02.437Z,100558.72
2022-09-22T22:29:34.740Z,100570.63
2022-09-22T22:32:08.041Z,100562.97
2022-09-22T22:34:36.250Z,100562.25
2022-09-22T22:37:07.096Z,100574.22
2022-09-22T22:39:34.950Z,100582.00
2022-09-22T22:42:02.649Z,100572.75
2022-09-22T22:44:30.458Z,100587.34
2022-09-22T22:46:58.507Z,100590.91
2022-09-22T22:49:27.762Z,100583.28
2022-09-22T22:51:55.466Z,100577.34
2022-09-22T22:54:23.226Z,100568.72
2022-09-22T22:56:51.742Z,100572.16
2022-09-22T22:59:19.662Z,100555.41
2022-09-22T23:01:47.731Z,100564.06
2022-09-22T23:04:16.743Z,100578.97
2022-09-22T23:06:44.903Z,100594.97
2022-09-22T23:09:16.605Z,100593.25
2022-09-22T23:11:46.252Z,100579.50
2022-09-22T23:14:15.995Z,100601.03
2022-09-22T23:16:46.893Z,100601.97
2022-09-22T23:19:17.981Z,100605.25
2022-09-22T23:21:46.656Z,100605.88
2022-09-22T23:24:16.789Z,100614.75
2022-09-22T23:26:45.811Z,100611.69
2022-09-22T23:29:13.853Z,100606.63
2022-09-22T23:31:42.171Z,100608.13
2022-09-22T23:34:09.950Z,100609.19
2022-09-22T23:36:39.593Z,100614.38
2022-09-22T23:39:07.572Z,100622.06
2022-09-22T23:41:37.140Z,100623.59
2022-09-22T23:44:06.814Z,100626.06
2022-09-22T23:46:35.152Z,100628.00
2022-09-22T23:49:02.894Z,100639.50
2022-09-22T23:51:31.224Z,100633.03
2022-09-22T23:53:59.133Z,100640.34
2022-09-22T23:56:26.997Z,100644.53
2022-09-22T23:58:54.918Z,100636.41
